VQBOS LYTV-LIRN
Flight info
| Callsign | VQBOS |
|---|---|
| Flight time | 0h 52m |
| Altitude | 26000 |
| Route | N0460F260 KOFER W36 CRAYE DCT EKTOL |
| Aircraft | B738/M-Q/L |
Departure
| Time | 2026-05-04 11:10 |
|---|---|
| Airport | Tivat Airport (LYTV) |
Arrival
| Time | 2026-05-04 12:02 |
|---|---|
| Airport | Naples International Airport (LIRN) |
| Time | Latitude | Longitude | Altitude | Speed | Heading |
|---|---|---|---|---|---|
| 2026-05-04 11:00 | 42.41034 | 18.71899 | 35 ft | 0 kts | 186° |
| 2026-05-04 11:05 | 42.40871 | 18.71839 | 4 ft | 17 kts | 139° |
| 2026-05-04 11:06 | 42.40738 | 18.71993 | 2 ft | 33 kts | 140° |
| 2026-05-04 11:06 | 42.40556 | 18.72199 | 1 ft | 34 kts | 140° |
| 2026-05-04 11:06 | 42.40384 | 18.72396 | 4 ft | 31 kts | 136° |
| 2026-05-04 11:06 | 42.40233 | 18.72582 | 4 ft | 28 kts | 139° |
| 2026-05-04 11:08 | 42.39662 | 18.73274 | 2 ft | 1 kts | 320° |
| 2026-05-04 11:10 | 42.41719 | 18.66997 | 2255 ft | 203 kts | 218° |
| 2026-05-04 11:12 | 42.30934 | 18.60750 | 5705 ft | 265 kts | 193° |
| 2026-05-04 11:12 | 42.29088 | 18.60790 | 6226 ft | 268 kts | 162° |
| 2026-05-04 11:12 | 42.27312 | 18.61573 | 6756 ft | 270 kts | 158° |
| 2026-05-04 11:12 | 42.25542 | 18.62397 | 7236 ft | 273 kts | 158° |
| 2026-05-04 11:13 | 42.23720 | 18.63239 | 7756 ft | 283 kts | 158° |
| 2026-05-04 11:13 | 42.21802 | 18.64094 | 8286 ft | 296 kts | 159° |
| 2026-05-04 11:13 | 42.19828 | 18.64942 | 8961 ft | 299 kts | 159° |
| 2026-05-04 11:13 | 42.17828 | 18.65795 | 9645 ft | 303 kts | 159° |
| 2026-05-04 11:14 | 42.17145 | 18.66086 | 9881 ft | 304 kts | 159° |
| 2026-05-04 11:14 | 42.13083 | 18.67820 | 11158 ft | 314 kts | 159° |
| 2026-05-04 11:16 | 41.93875 | 18.66831 | 15482 ft | 424 kts | 193° |
| 2026-05-04 11:16 | 41.91143 | 18.65259 | 15942 ft | 434 kts | 216° |
| 2026-05-04 11:16 | 41.88883 | 18.62536 | 16496 ft | 439 kts | 229° |
| 2026-05-04 11:17 | 41.86750 | 18.59540 | 17013 ft | 447 kts | 228° |
| 2026-05-04 11:17 | 41.84546 | 18.56540 | 17539 ft | 454 kts | 228° |
| 2026-05-04 11:19 | 41.68433 | 18.35655 | 20998 ft | 471 kts | 226° |
| 2026-05-04 11:19 | 41.66026 | 18.32641 | 21510 ft | 475 kts | 226° |
| 2026-05-04 11:19 | 41.63609 | 18.29614 | 22021 ft | 478 kts | 226° |
| 2026-05-04 11:19 | 41.61174 | 18.26562 | 22558 ft | 481 kts | 226° |
| 2026-05-04 11:20 | 41.58729 | 18.23497 | 23097 ft | 483 kts | 226° |
| 2026-05-04 11:20 | 41.56273 | 18.20419 | 23644 ft | 485 kts | 226° |
| 2026-05-04 11:20 | 41.53805 | 18.17328 | 24117 ft | 486 kts | 226° |
| 2026-05-04 11:20 | 41.51368 | 18.14280 | 24572 ft | 487 kts | 226° |
| 2026-05-04 11:22 | 41.33980 | 17.92881 | 28011 ft | 478 kts | 227° |
| 2026-05-04 11:22 | 41.31501 | 17.89889 | 28153 ft | 483 kts | 227° |
| 2026-05-04 11:23 | 41.26473 | 17.83814 | 28174 ft | 498 kts | 227° |
| 2026-05-04 11:24 | 41.18419 | 17.62219 | 28173 ft | 440 kts | 288° |
| 2026-05-04 11:25 | 41.18914 | 17.58168 | 28159 ft | 447 kts | 281° |
| 2026-05-04 11:25 | 41.19148 | 17.49916 | 28147 ft | 452 kts | 275° |
| 2026-05-04 11:27 | 41.19631 | 17.12423 | 28152 ft | 449 kts | 276° |
| 2026-05-04 11:28 | 41.19785 | 17.04142 | 28150 ft | 448 kts | 276° |
| 2026-05-04 11:28 | 41.19930 | 16.95924 | 28149 ft | 448 kts | 276° |
| 2026-05-04 11:29 | 41.20069 | 16.87656 | 28156 ft | 447 kts | 275° |
| 2026-05-04 11:29 | 41.20202 | 16.79402 | 28157 ft | 447 kts | 275° |
| 2026-05-04 11:31 | 41.20620 | 16.50604 | 27747 ft | 449 kts | 275° |
| 2026-05-04 11:33 | 41.20967 | 16.21551 | 27132 ft | 448 kts | 274° |
| 2026-05-04 11:33 | 41.21007 | 16.17483 | 26923 ft | 431 kts | 274° |
| 2026-05-04 11:33 | 41.21044 | 16.13554 | 26474 ft | 421 kts | 274° |
| 2026-05-04 11:34 | 41.21081 | 16.09705 | 26017 ft | 411 kts | 274° |
| 2026-05-04 11:34 | 41.21116 | 16.05935 | 25574 ft | 403 kts | 274° |
| 2026-05-04 11:34 | 41.21151 | 16.02237 | 25093 ft | 397 kts | 274° |
| 2026-05-04 11:34 | 41.21184 | 15.98595 | 24652 ft | 391 kts | 274° |
| 2026-05-04 11:35 | 41.21216 | 15.95007 | 24235 ft | 386 kts | 274° |
| 2026-05-04 11:35 | 41.21245 | 15.91511 | 23823 ft | 381 kts | 274° |
| 2026-05-04 11:35 | 41.21274 | 15.88016 | 23343 ft | 376 kts | 274° |
| 2026-05-04 11:35 | 41.21301 | 15.84547 | 22862 ft | 372 kts | 274° |
| 2026-05-04 11:36 | 41.21327 | 15.81130 | 22385 ft | 369 kts | 273° |
| 2026-05-04 11:36 | 41.21352 | 15.77739 | 21913 ft | 365 kts | 273° |
| 2026-05-04 11:36 | 41.21375 | 15.74380 | 21451 ft | 362 kts | 273° |
| 2026-05-04 11:36 | 41.21396 | 15.71049 | 20991 ft | 360 kts | 273° |
| 2026-05-04 11:37 | 41.21417 | 15.67741 | 20539 ft | 357 kts | 273° |
| 2026-05-04 11:37 | 41.21437 | 15.64453 | 20099 ft | 354 kts | 273° |
| 2026-05-04 11:37 | 41.21455 | 15.61178 | 19665 ft | 352 kts | 273° |
| 2026-05-04 11:37 | 41.21472 | 15.57930 | 19231 ft | 350 kts | 272° |
| 2026-05-04 11:38 | 41.21487 | 15.54737 | 18813 ft | 349 kts | 272° |
| 2026-05-04 11:38 | 41.21503 | 15.51518 | 18391 ft | 347 kts | 272° |
| 2026-05-04 11:38 | 41.21519 | 15.48319 | 17899 ft | 345 kts | 272° |
| 2026-05-04 11:38 | 41.21500 | 15.45141 | 17429 ft | 344 kts | 268° |
| 2026-05-04 11:39 | 41.21181 | 15.41983 | 16979 ft | 344 kts | 262° |
| 2026-05-04 11:39 | 41.20761 | 15.38854 | 16523 ft | 343 kts | 261° |
| 2026-05-04 11:40 | 41.18240 | 15.20284 | 13892 ft | 338 kts | 262° |
| 2026-05-04 11:41 | 41.17838 | 15.17219 | 13419 ft | 337 kts | 262° |
| 2026-05-04 11:41 | 41.17439 | 15.14160 | 12968 ft | 335 kts | 262° |
| 2026-05-04 11:41 | 41.17175 | 15.12140 | 12659 ft | 335 kts | 262° |
| 2026-05-04 11:41 | 41.16769 | 15.09095 | 12192 ft | 335 kts | 262° |
| 2026-05-04 11:42 | 41.16366 | 15.06051 | 11733 ft | 333 kts | 262° |
| 2026-05-04 11:42 | 41.15975 | 15.03065 | 11301 ft | 323 kts | 262° |
| 2026-05-04 11:42 | 41.15596 | 15.00187 | 10912 ft | 311 kts | 262° |
| 2026-05-04 11:42 | 41.15230 | 14.97405 | 10583 ft | 304 kts | 262° |
| 2026-05-04 11:43 | 41.14864 | 14.94645 | 10256 ft | 304 kts | 261° |
| 2026-05-04 11:43 | 41.14493 | 14.91875 | 9885 ft | 304 kts | 261° |
| 2026-05-04 11:43 | 41.14133 | 14.89134 | 9566 ft | 299 kts | 260° |
| 2026-05-04 11:43 | 41.13772 | 14.86419 | 9244 ft | 296 kts | 260° |
| 2026-05-04 11:44 | 41.13416 | 14.83750 | 8947 ft | 293 kts | 260° |
| 2026-05-04 11:44 | 41.12984 | 14.81166 | 8634 ft | 290 kts | 249° |
| 2026-05-04 11:44 | 41.12015 | 14.78833 | 8346 ft | 286 kts | 237° |
| 2026-05-04 11:44 | 41.10941 | 14.76621 | 8033 ft | 284 kts | 237° |
| 2026-05-04 11:45 | 41.09882 | 14.74426 | 7736 ft | 281 kts | 238° |
| 2026-05-04 11:45 | 41.08842 | 14.72236 | 7447 ft | 279 kts | 238° |
| 2026-05-04 11:45 | 41.07819 | 14.70065 | 7154 ft | 277 kts | 238° |
| 2026-05-04 11:45 | 41.06802 | 14.67898 | 6866 ft | 275 kts | 238° |
| 2026-05-04 11:46 | 41.05810 | 14.65782 | 6578 ft | 272 kts | 238° |
| 2026-05-04 11:46 | 41.04816 | 14.63651 | 6279 ft | 271 kts | 238° |
| 2026-05-04 11:46 | 41.03828 | 14.61534 | 5967 ft | 269 kts | 238° |
| 2026-05-04 11:46 | 41.02848 | 14.59438 | 5685 ft | 267 kts | 238° |
| 2026-05-04 11:47 | 41.01872 | 14.57352 | 5435 ft | 263 kts | 238° |
| 2026-05-04 11:47 | 41.00930 | 14.55333 | 5393 ft | 253 kts | 238° |
| 2026-05-04 11:47 | 41.00025 | 14.53397 | 5399 ft | 239 kts | 238° |
| 2026-05-04 11:47 | 40.99167 | 14.51565 | 5204 ft | 230 kts | 238° |
| 2026-05-04 11:48 | 40.98334 | 14.49785 | 4957 ft | 225 kts | 238° |
| 2026-05-04 11:48 | 40.97520 | 14.48037 | 4662 ft | 219 kts | 238° |
| 2026-05-04 11:48 | 40.96737 | 14.46358 | 4367 ft | 209 kts | 238° |
| 2026-05-04 11:48 | 40.95984 | 14.44755 | 4065 ft | 201 kts | 238° |
| 2026-05-04 11:49 | 40.95254 | 14.43212 | 3778 ft | 195 kts | 238° |
| 2026-05-04 11:49 | 40.94545 | 14.41706 | 3492 ft | 188 kts | 239° |
| 2026-05-04 11:49 | 40.93868 | 14.40270 | 3163 ft | 179 kts | 239° |
| 2026-05-04 11:49 | 40.93247 | 14.38943 | 2883 ft | 166 kts | 239° |
| 2026-05-04 11:50 | 40.92638 | 14.37669 | 2541 ft | 162 kts | 238° |
| 2026-05-04 11:50 | 40.92057 | 14.36423 | 2202 ft | 155 kts | 239° |
| 2026-05-04 11:50 | 40.91498 | 14.35231 | 1930 ft | 149 kts | 239° |
| 2026-05-04 11:50 | 40.90957 | 14.34080 | 1600 ft | 146 kts | 238° |
| 2026-05-04 11:51 | 40.90425 | 14.32957 | 1238 ft | 144 kts | 238° |
| 2026-05-04 11:51 | 40.89919 | 14.31817 | 863 ft | 141 kts | 239° |
| 2026-05-04 11:51 | 40.89504 | 14.30625 | 618 ft | 150 kts | 244° |
| 2026-05-04 11:51 | 40.89373 | 14.29259 | 1162 ft | 164 kts | 281° |
| 2026-05-04 11:52 | 40.89780 | 14.27839 | 1743 ft | 169 kts | 289° |
| 2026-05-04 11:52 | 40.90229 | 14.26231 | 2345 ft | 196 kts | 289° |
| 2026-05-04 11:52 | 40.90695 | 14.24539 | 2881 ft | 200 kts | 290° |
| 2026-05-04 11:52 | 40.91361 | 14.22927 | 3394 ft | 202 kts | 314° |
| 2026-05-04 11:53 | 40.92614 | 14.22075 | 3922 ft | 210 kts | 349° |
| 2026-05-04 11:53 | 40.94065 | 14.22268 | 3981 ft | 214 kts | 23° |
| 2026-05-04 11:53 | 40.95185 | 14.23524 | 4001 ft | 216 kts | 55° |
| 2026-05-04 11:53 | 40.95980 | 14.25230 | 3788 ft | 222 kts | 59° |
| 2026-05-04 11:55 | 41.01370 | 14.35695 | 2523 ft | 176 kts | 40° |
| 2026-05-04 11:55 | 41.02284 | 14.36804 | 2396 ft | 180 kts | 43° |
| 2026-05-04 11:56 | 41.03138 | 14.37999 | 2205 ft | 177 kts | 49° |
| 2026-05-04 11:56 | 41.03641 | 14.39447 | 2021 ft | 174 kts | 86° |
| 2026-05-04 11:56 | 41.03332 | 14.40908 | 1996 ft | 161 kts | 125° |
| 2026-05-04 11:56 | 41.02747 | 14.42160 | 2026 ft | 162 kts | 121° |
| 2026-05-04 11:57 | 41.02003 | 14.43322 | 2005 ft | 167 kts | 143° |
| 2026-05-04 11:57 | 41.00979 | 14.44006 | 1998 ft | 165 kts | 178° |
| 2026-05-04 11:57 | 40.99883 | 14.43739 | 1997 ft | 161 kts | 200° |
| 2026-05-04 11:57 | 40.98824 | 14.43290 | 2027 ft | 158 kts | 200° |
| 2026-05-04 11:58 | 40.97732 | 14.42831 | 2004 ft | 166 kts | 200° |
| 2026-05-04 11:58 | 40.96637 | 14.42365 | 2003 ft | 164 kts | 200° |
| 2026-05-04 11:58 | 40.95561 | 14.41893 | 1986 ft | 160 kts | 200° |
| 2026-05-04 11:58 | 40.94627 | 14.41230 | 1984 ft | 147 kts | 228° |
| 2026-05-04 11:59 | 40.94018 | 14.40184 | 1981 ft | 142 kts | 233° |
| 2026-05-04 11:59 | 40.93402 | 14.39179 | 1992 ft | 140 kts | 232° |
| 2026-05-04 11:59 | 40.92840 | 14.38083 | 1805 ft | 145 kts | 239° |
| 2026-05-04 11:59 | 40.92310 | 14.36973 | 1555 ft | 139 kts | 240° |
| 2026-05-04 12:00 | 40.91813 | 14.35902 | 1387 ft | 138 kts | 239° |
| 2026-05-04 12:00 | 40.91314 | 14.34840 | 1187 ft | 138 kts | 238° |
| 2026-05-04 12:00 | 40.90805 | 14.33756 | 966 ft | 139 kts | 236° |
| 2026-05-04 12:00 | 40.90293 | 14.32684 | 745 ft | 138 kts | 234° |
| 2026-05-04 12:01 | 40.89806 | 14.31612 | 517 ft | 134 kts | 236° |
| 2026-05-04 12:01 | 40.89304 | 14.30566 | 295 ft | 134 kts | 236° |
| 2026-05-04 12:02 | 40.88105 | 14.28337 | 289 ft | 11 kts | 210° |
| 2026-05-04 12:03 | 40.88073 | 14.28296 | 287 ft | 6 kts | 253° |
| 2026-05-04 12:03 | 40.88059 | 14.28251 | 288 ft | 6 kts | 215° |
| 2026-05-04 12:03 | 40.88025 | 14.28248 | 289 ft | 6 kts | 147° |
| 2026-05-04 12:03 | 40.88012 | 14.28256 | 292 ft | 0 kts | 159° |